sensor_id;sensor_type;location;lat;lon;timestamp;pressure;altitude;pressure_sealevel;temperature;humidity
70458;BME280;57919;56.194;95.716;2023-05-24T00:06:20;98484.81;;;12.93;56.65
70458;BME280;57919;56.194;95.716;2023-05-24T00:16:22;98487.28;;;12.04;56.61
70458;BME280;57919;56.194;95.716;2023-05-24T00:26:24;98491.66;;;11.45;57.37
70458;BME280;57919;56.194;95.716;2023-05-24T00:36:30;98496.41;;;11.25;56.43
70458;BME280;57919;56.194;95.716;2023-05-24T00:46:33;98506.16;;;10.47;53.95
70458;BME280;57919;56.194;95.716;2023-05-24T00:56:35;98505.13;;;9.56;54.51
70458;BME280;57919;56.194;95.716;2023-05-24T01:07:21;98520.97;;;9.22;56.21
70458;BME280;57919;56.194;95.716;2023-05-24T01:17:29;98561.97;;;7.57;62.38
70458;BME280;57919;56.194;95.716;2023-05-24T01:27:33;98580.88;;;6.61;67.45
70458;BME280;57919;56.194;95.716;2023-05-24T01:37:36;98587.66;;;7.08;69.20
70458;BME280;57919;56.194;95.716;2023-05-24T01:58:03;98573.94;;;10.63;62.36
70458;BME280;57919;56.194;95.716;2023-05-24T02:08:06;98600.22;;;9.30;62.04
70458;BME280;57919;56.194;95.716;2023-05-24T02:18:09;98607.59;;;8.40;65.49
70458;BME280;57919;56.194;95.716;2023-05-24T02:28:31;98607.97;;;8.66;65.57
70458;BME280;57919;56.194;95.716;2023-05-24T02:38:33;98606.19;;;9.05;64.27
70458;BME280;57919;56.194;95.716;2023-05-24T02:48:35;98610.13;;;8.91;63.55
70458;BME280;57919;56.194;95.716;2023-05-24T02:58:37;98609.22;;;9.97;60.62
70458;BME280;57919;56.194;95.716;2023-05-24T03:08:41;98619.63;;;9.82;58.46
70458;BME280;57919;56.194;95.716;2023-05-24T03:18:43;98642.41;;;9.31;56.37
70458;BME280;57919;56.194;95.716;2023-05-24T03:28:45;98653.72;;;8.87;55.90
70458;BME280;57919;56.194;95.716;2023-05-24T03:38:48;98659.72;;;9.19;54.78
70458;BME280;57919;56.194;95.716;2023-05-24T03:48:51;98664.41;;;9.07;53.34
70458;BME280;57919;56.194;95.716;2023-05-24T03:58:53;98669.66;;;9.86;51.77
70458;BME280;57919;56.194;95.716;2023-05-24T04:08:57;98664.50;;;11.31;47.90
70458;BME280;57919;56.194;95.716;2023-05-24T04:18:59;98676.78;;;11.08;45.05
70458;BME280;57919;56.194;95.716;2023-05-24T04:29:04;98683.16;;;9.96;45.70
70458;BME280;57919;56.194;95.716;2023-05-24T04:39:06;98696.88;;;10.41;44.94
70458;BME280;57919;56.194;95.716;2023-05-24T04:49:08;98695.50;;;11.82;43.71
70458;BME280;57919;56.194;95.716;2023-05-24T04:59:10;98712.59;;;12.01;39.71
70458;BME280;57919;56.194;95.716;2023-05-24T05:09:12;98733.28;;;10.56;40.80
70458;BME280;57919;56.194;95.716;2023-05-24T05:19:15;98742.19;;;10.00;42.22
70458;BME280;57919;56.194;95.716;2023-05-24T05:29:17;98755.53;;;9.92;43.46
70458;BME280;57919;56.194;95.716;2023-05-24T05:39:19;98765.50;;;9.73;44.32
70458;BME280;57919;56.194;95.716;2023-05-24T05:49:21;98767.56;;;9.30;45.61
70458;BME280;57919;56.194;95.716;2023-05-24T05:59:23;98779.56;;;9.57;45.21
70458;BME280;57919;56.194;95.716;2023-05-24T06:09:24;98784.50;;;9.52;45.19
70458;BME280;57919;56.194;95.716;2023-05-24T06:19:26;98795.06;;;9.64;45.52
70458;BME280;57919;56.194;95.716;2023-05-24T06:29:28;98807.84;;;9.72;44.81
70458;BME280;57919;56.194;95.716;2023-05-24T06:39:30;98825.81;;;9.33;46.88
70458;BME280;57919;56.194;95.716;2023-05-24T06:49:32;98823.41;;;9.39;44.54
70458;BME280;57919;56.194;95.716;2023-05-24T06:59:34;98853.66;;;9.33;45.09
70458;BME280;57919;56.194;95.716;2023-05-24T07:09:36;98854.22;;;8.97;45.69
70458;BME280;57919;56.194;95.716;2023-05-24T07:19:38;98879.38;;;9.37;44.07
70458;BME280;57919;56.194;95.716;2023-05-24T07:29:41;98872.25;;;9.67;44.06
70458;BME280;57919;56.194;95.716;2023-05-24T07:39:43;98887.00;;;9.63;43.30
70458;BME280;57919;56.194;95.716;2023-05-24T07:49:45;98891.88;;;9.69;43.39
70458;BME280;57919;56.194;95.716;2023-05-24T07:59:47;98892.31;;;9.74;43.34
70458;BME280;57919;56.194;95.716;2023-05-24T08:09:49;98897.50;;;10.16;40.89
70458;BME280;57919;56.194;95.716;2023-05-24T08:19:51;98924.72;;;10.62;40.90
70458;BME280;57919;56.194;95.716;2023-05-24T08:29:53;98918.56;;;11.09;39.51
70458;BME280;57919;56.194;95.716;2023-05-24T08:39:55;98934.00;;;10.70;39.11
70458;BME280;57919;56.194;95.716;2023-05-24T08:49:57;98939.25;;;10.52;39.39
70458;BME280;57919;56.194;95.716;2023-05-24T08:59:59;98951.72;;;9.74;41.18
70458;BME280;57919;56.194;95.716;2023-05-24T09:10:06;98963.28;;;9.86;40.68
70458;BME280;57919;56.194;95.716;2023-05-24T09:20:09;98969.63;;;10.15;40.23
70458;BME280;57919;56.194;95.716;2023-05-24T09:30:12;98983.09;;;9.96;40.31
70458;BME280;57919;56.194;95.716;2023-05-24T09:40:17;98982.78;;;10.29;40.87
70458;BME280;57919;56.194;95.716;2023-05-24T09:50:21;99012.53;;;9.99;39.97
70458;BME280;57919;56.194;95.716;2023-05-24T10:00:23;99014.56;;;9.04;44.48
70458;BME280;57919;56.194;95.716;2023-05-24T10:10:27;99010.69;;;9.18;44.15
70458;BME280;57919;56.194;95.716;2023-05-24T10:20:30;99015.84;;;9.72;42.63
70458;BME280;57919;56.194;95.716;2023-05-24T10:41:00;99039.06;;;9.33;44.27
70458;BME280;57919;56.194;95.716;2023-05-24T11:01:35;99050.31;;;9.17;45.35
70458;BME280;57919;56.194;95.716;2023-05-24T11:11:37;99064.06;;;9.14;44.80
70458;BME280;57919;56.194;95.716;2023-05-24T11:21:40;99062.56;;;9.21;44.58
70458;BME280;57919;56.194;95.716;2023-05-24T11:31:54;99070.72;;;9.31;44.33
70458;BME280;57919;56.194;95.716;2023-05-24T11:42:06;99066.44;;;9.28;44.38
70458;BME280;57919;56.194;95.716;2023-05-24T11:52:08;99076.41;;;9.49;43.64
70458;BME280;57919;56.194;95.716;2023-05-24T12:02:10;99075.75;;;9.35;43.67
70458;BME280;57919;56.194;95.716;2023-05-24T12:12:12;99069.41;;;9.25;43.05
70458;BME280;57919;56.194;95.716;2023-05-24T12:22:14;99080.06;;;9.06;43.35
70458;BME280;57919;56.194;95.716;2023-05-24T12:32:16;99088.19;;;8.95;43.73
70458;BME280;57919;56.194;95.716;2023-05-24T12:42:18;99088.69;;;8.89;43.79
70458;BME280;57919;56.194;95.716;2023-05-24T12:52:24;99106.25;;;8.83;44.23
70458;BME280;57919;56.194;95.716;2023-05-24T13:02:26;99117.94;;;8.61;44.36
70458;BME280;57919;56.194;95.716;2023-05-24T13:12:28;99132.19;;;8.41;43.36
70458;BME280;57919;56.194;95.716;2023-05-24T13:22:30;99138.06;;;8.35;43.68
70458;BME280;57919;56.194;95.716;2023-05-24T13:32:32;99152.03;;;8.40;44.51
70458;BME280;57919;56.194;95.716;2023-05-24T13:42:33;99160.34;;;8.26;44.95
70458;BME280;57919;56.194;95.716;2023-05-24T13:52:35;99162.53;;;7.98;45.78
70458;BME280;57919;56.194;95.716;2023-05-24T14:02:38;99166.75;;;7.67;47.62
70458;BME280;57919;56.194;95.716;2023-05-24T14:12:40;99172.19;;;7.43;48.18
70458;BME280;57919;56.194;95.716;2023-05-24T14:22:43;99178.16;;;7.12;49.62
70458;BME280;57919;56.194;95.716;2023-05-24T14:32:45;99188.31;;;6.72;50.51
70458;BME280;57919;56.194;95.716;2023-05-24T14:42:47;99201.13;;;6.56;51.16
70458;BME280;57919;56.194;95.716;2023-05-24T14:52:48;99208.06;;;6.34;52.12
70458;BME280;57919;56.194;95.716;2023-05-24T15:02:51;99210.22;;;6.29;51.86
70458;BME280;57919;56.194;95.716;2023-05-24T15:12:52;99211.50;;;6.11;52.08
70458;BME280;57919;56.194;95.716;2023-05-24T15:22:54;99216.66;;;6.01;52.44
70458;BME280;57919;56.194;95.716;2023-05-24T15:32:56;99220.53;;;5.97;53.04
70458;BME280;57919;56.194;95.716;2023-05-24T15:43:00;99217.94;;;5.96;53.37
70458;BME280;57919;56.194;95.716;2023-05-24T15:53:02;99221.59;;;5.95;53.73
70458;BME280;57919;56.194;95.716;2023-05-24T16:03:04;99221.16;;;6.01;54.03
70458;BME280;57919;56.194;95.716;2023-05-24T16:13:07;99226.31;;;5.91;54.37
70458;BME280;57919;56.194;95.716;2023-05-24T16:23:09;99221.66;;;5.80;54.85
70458;BME280;57919;56.194;95.716;2023-05-24T16:33:10;99226.56;;;5.74;54.92
70458;BME280;57919;56.194;95.716;2023-05-24T16:43:12;99234.72;;;5.60;55.15
70458;BME280;57919;56.194;95.716;2023-05-24T16:53:14;99228.50;;;5.72;54.66
70458;BME280;57919;56.194;95.716;2023-05-24T17:03:16;99219.81;;;5.68;54.71
70458;BME280;57919;56.194;95.716;2023-05-24T17:13:18;99232.69;;;5.76;54.14
70458;BME280;57919;56.194;95.716;2023-05-24T17:23:20;99228.38;;;5.61;54.42
70458;BME280;57919;56.194;95.716;2023-05-24T17:33:22;99223.59;;;5.39;54.83
70458;BME280;57919;56.194;95.716;2023-05-24T17:43:25;99223.03;;;5.34;54.38
70458;BME280;57919;56.194;95.716;2023-05-24T17:53:32;99222.75;;;5.38;54.70
70458;BME280;57919;56.194;95.716;2023-05-24T18:03:36;99217.06;;;5.43;54.75
70458;BME280;57919;56.194;95.716;2023-05-24T18:13:40;99209.31;;;5.38;54.77
70458;BME280;57919;56.194;95.716;2023-05-24T18:23:42;99221.44;;;5.31;54.79
70458;BME280;57919;56.194;95.716;2023-05-24T18:33:44;99211.91;;;5.40;54.15
70458;BME280;57919;56.194;95.716;2023-05-24T18:43:46;99225.78;;;5.46;54.13
70458;BME280;57919;56.194;95.716;2023-05-24T18:53:48;99232.06;;;5.33;54.19
70458;BME280;57919;56.194;95.716;2023-05-24T19:03:52;99231.44;;;5.15;54.87
70458;BME280;57919;56.194;95.716;2023-05-24T19:13:54;99236.84;;;5.01;55.27
70458;BME280;57919;56.194;95.716;2023-05-24T19:23:55;99234.88;;;4.90;55.37
70458;BME280;57919;56.194;95.716;2023-05-24T19:33:57;99239.00;;;4.81;55.51
70458;BME280;57919;56.194;95.716;2023-05-24T19:43:59;99228.31;;;4.67;55.70
70458;BME280;57919;56.194;95.716;2023-05-24T19:54:01;99233.69;;;4.67;55.60
70458;BME280;57919;56.194;95.716;2023-05-24T20:04:03;99232.16;;;4.63;55.56
70458;BME280;57919;56.194;95.716;2023-05-24T20:14:05;99240.97;;;4.51;55.83
70458;BME280;57919;56.194;95.716;2023-05-24T20:24:07;99243.75;;;4.49;55.76
70458;BME280;57919;56.194;95.716;2023-05-24T20:34:09;99239.63;;;4.44;56.10
70458;BME280;57919;56.194;95.716;2023-05-24T20:44:11;99250.44;;;4.42;56.43
70458;BME280;57919;56.194;95.716;2023-05-24T20:54:13;99257.72;;;4.40;56.35
70458;BME280;57919;56.194;95.716;2023-05-24T21:04:14;99261.25;;;4.27;56.50
70458;BME280;57919;56.194;95.716;2023-05-24T21:14:16;99266.03;;;4.21;56.63
70458;BME280;57919;56.194;95.716;2023-05-24T21:24:18;99269.38;;;4.25;56.95
70458;BME280;57919;56.194;95.716;2023-05-24T21:34:20;99271.66;;;4.31;56.68
70458;BME280;57919;56.194;95.716;2023-05-24T21:44:22;99277.03;;;4.45;56.36
70458;BME280;57919;56.194;95.716;2023-05-24T21:54:24;99279.31;;;4.51;56.51
70458;BME280;57919;56.194;95.716;2023-05-24T22:04:26;99281.53;;;4.59;56.14
70458;BME280;57919;56.194;95.716;2023-05-24T22:14:28;99285.94;;;4.60;56.58
70458;BME280;57919;56.194;95.716;2023-05-24T22:24:30;99307.84;;;4.67;56.50
70458;BME280;57919;56.194;95.716;2023-05-24T22:34:31;99304.50;;;4.63;57.18
70458;BME280;57919;56.194;95.716;2023-05-24T22:44:34;99308.88;;;4.78;56.88
70458;BME280;57919;56.194;95.716;2023-05-24T22:54:35;99314.53;;;4.88;56.94
70458;BME280;57919;56.194;95.716;2023-05-24T23:04:37;99316.78;;;5.08;56.79
70458;BME280;57919;56.194;95.716;2023-05-24T23:14:40;99305.66;;;5.56;56.00
70458;BME280;57919;56.194;95.716;2023-05-24T23:24:42;99309.34;;;5.94;55.24
70458;BME280;57919;56.194;95.716;2023-05-24T23:34:44;99306.25;;;6.26;54.27
70458;BME280;57919;56.194;95.716;2023-05-24T23:44:46;99302.84;;;6.62;53.51
70458;BME280;57919;56.194;95.716;2023-05-24T23:54:48;99310.47;;;6.68;53.36
